Three Rivers, TX (78071)

6:35 AM CDT on September 02, 2015 (GMT -0500)
Houston Ranch | | Change Station
CLOSE
Current Station
Personal Weather Station
Location: George West, TX
Elevation: 289 ft
Nearby Weather Stations

Elev 289 ft 28.40 °N, 97.96 °W | Updated 20 seconds ago

Overcast
Overcast
73.0 °F
Feels Like 73.0 °F
N
1.3
Wind Variable Wind from NW
Gusts 2.5 mph

Today
High -- | Low -- °F
--% Chance of Precip.
Yesterday
High -- | Low -- °F
Precip. -- in
7:11 AM 7:52 PM
Waning Gibbous, 81% visible
Pressure 30.00 in
Visibility 10.0 miles
Clouds Scattered Clouds 1800 ft
Scattered Clouds 2700 ft
Scattered Clouds 3200 ft
Dew Point 72 °F
Humidity 96%
Rainfall 0.00 in
Snow Depth Not available.
UV 0.0 out of 12
Pollen 7.10 out of 12
Air Quality Not available.
Flu Activity Not available.
METAR KBEA 021115Z AUTO 05004KT 10SM SCT018 SCT027 SCT032 21/21 A3000 RMK AO2 T02130213
Pressure 30.00 in
Visibility 10.0 miles
Clouds Scattered Clouds 1800 ft
Scattered Clouds 2700 ft
Scattered Clouds 3200 ft
Dew Point 72 °F
Humidity 96%
Rainfall 0.00 in
Snow Depth Not available.
UV 0.0 out of 12
Pollen 7.10 out of 12
Air Quality Not available.
Flu Activity Not available.
METAR KBEA 021115Z AUTO 05004KT 10SM SCT018 SCT027 SCT032 21/21 A3000 RMK AO2 T02130213

10-Day Weather Forecast

×

Almanac

Astronomy

Sep. 02, 2015 Rise Set
Actual Time
Civil Twilight
Nautical Twilight
Astronomical Twilight
Moon
Length of Visible Light
Length of Day
Tomorrow will be .
, % of the Moon is Illuminated

Today's Extremes

State Highs State Lows

Community

WunderPhotos

Upload Photos

1,851,736 photos uploaded!

WunderBlogs® & News

Nearby

Air Quality

  Air Quality AQ Index Pollutant
Not available.

Snow Depth

Station Depth Elevation

Earthquake Activity

City Distance Mag. Time & Date
Minimum magnitude displayed is 2.5.

Coastal Water Temperatures

Place Temperature

Stations

Nearby Weather Stations

Station Location Temp. Windchill Dew Point Humidity Wind Precip. Elev Updated Type